Raeford, North Carolina
Current Conditions -  °F | °C
As of 2:52 AM on Monday 22 Dec 2014 (Local Time) from KMEB Reporting Station
Moderate Rain Moderate Rain  
Wind Chill: 33°   Ceiling: 600
Heat Index: 41°   Visibility: 3mi
Dew Point: 40°   Wind: 16mph
Humidity: 96%   Direction: 50°NE
Pressure: 30.12"   Gusts: NA
Location:  34.98°N, 79.22°W
Report Text: KMEB 220752Z AUTO 05014KT 3SM RA BR OVC006 05/04 A3012 RMK AO2 SLP199 P0017 T00500044
Loading
Personal Weather Stations






























Interactive Weather Map New forecast layout! Learn more

10-Day Weather Forecast

Advertisements
Track Severe Weather on mobile